sensor_id;sensor_type;location;lat;lon;timestamp;pressure;altitude;pressure_sealevel;temperature
19568;BMP280;9930;49.240;8.548;2022-08-02T00:00:10;100612.16;;;27.71
19568;BMP280;9930;49.240;8.548;2022-08-02T00:02:44;100609.63;;;27.68
19568;BMP280;9930;49.240;8.548;2022-08-02T00:05:12;100612.38;;;27.63
19568;BMP280;9930;49.240;8.548;2022-08-02T00:07:41;100608.25;;;27.55
19568;BMP280;9930;49.240;8.548;2022-08-02T00:10:11;100617.81;;;27.56
19568;BMP280;9930;49.240;8.548;2022-08-02T00:12:43;100612.75;;;27.50
19568;BMP280;9930;49.240;8.548;2022-08-02T00:15:11;100612.84;;;27.47
19568;BMP280;9930;49.240;8.548;2022-08-02T00:17:40;100614.69;;;27.43
19568;BMP280;9930;49.240;8.548;2022-08-02T00:20:10;100612.28;;;27.35
19568;BMP280;9930;49.240;8.548;2022-08-02T00:22:42;100599.38;;;27.29
19568;BMP280;9930;49.240;8.548;2022-08-02T00:25:13;100602.91;;;27.28
19568;BMP280;9930;49.240;8.548;2022-08-02T00:27:40;100605.66;;;27.24
19568;BMP280;9930;49.240;8.548;2022-08-02T00:30:10;100603.06;;;27.22
19568;BMP280;9930;49.240;8.548;2022-08-02T00:32:39;100609.13;;;27.24
19568;BMP280;9930;49.240;8.548;2022-08-02T00:35:08;100598.91;;;27.15
19568;BMP280;9930;49.240;8.548;2022-08-02T00:37:40;100603.41;;;27.10
19568;BMP280;9930;49.240;8.548;2022-08-02T00:40:10;100604.44;;;27.04
19568;BMP280;9930;49.240;8.548;2022-08-02T00:42:38;100593.34;;;26.93
19568;BMP280;9930;49.240;8.548;2022-08-02T00:45:05;100598.69;;;26.90
19568;BMP280;9930;49.240;8.548;2022-08-02T00:47:31;100601.34;;;26.89
19568;BMP280;9930;49.240;8.548;2022-08-02T00:49:59;100608.53;;;26.81
19568;BMP280;9930;49.240;8.548;2022-08-02T00:52:27;100619.84;;;26.81
19568;BMP280;9930;49.240;8.548;2022-08-02T00:54:55;100629.59;;;26.76
19568;BMP280;9930;49.240;8.548;2022-08-02T00:57:21;100630.56;;;26.72
19568;BMP280;9930;49.240;8.548;2022-08-02T00:59:46;100641.19;;;26.66
19568;BMP280;9930;49.240;8.548;2022-08-02T01:02:13;100639.53;;;26.62
19568;BMP280;9930;49.240;8.548;2022-08-02T01:04:41;100642.28;;;26.57
19568;BMP280;9930;49.240;8.548;2022-08-02T01:07:10;100642.34;;;26.54
19568;BMP280;9930;49.240;8.548;2022-08-02T01:09:38;100640.81;;;26.45
19568;BMP280;9930;49.240;8.548;2022-08-02T01:12:08;100641.66;;;26.46
19568;BMP280;9930;49.240;8.548;2022-08-02T01:14:35;100643.53;;;26.41
19568;BMP280;9930;49.240;8.548;2022-08-02T01:17:18;100638.44;;;26.35
19568;BMP280;9930;49.240;8.548;2022-08-02T01:26:42;100642.34;;;26.15
19568;BMP280;9930;49.240;8.548;2022-08-02T01:29:42;100659.81;;;26.15
19568;BMP280;9930;49.240;8.548;2022-08-02T01:32:16;100659.81;;;26.15
19568;BMP280;9930;49.240;8.548;2022-08-02T01:37:23;100649.47;;;26.09
19568;BMP280;9930;49.240;8.548;2022-08-02T01:39:57;100669.41;;;26.14
19568;BMP280;9930;49.240;8.548;2022-08-02T01:42:26;100662.44;;;26.13
19568;BMP280;9930;49.240;8.548;2022-08-02T01:44:56;100661.53;;;26.16
19568;BMP280;9930;49.240;8.548;2022-08-02T01:47:32;100658.00;;;26.17
19568;BMP280;9930;49.240;8.548;2022-08-02T01:50:02;100653.75;;;26.13
19568;BMP280;9930;49.240;8.548;2022-08-02T01:52:35;100662.38;;;26.17
19568;BMP280;9930;49.240;8.548;2022-08-02T01:55:16;100657.28;;;26.10
19568;BMP280;9930;49.240;8.548;2022-08-02T01:57:49;100658.94;;;26.14
19568;BMP280;9930;49.240;8.548;2022-08-02T02:00:23;100647.78;;;26.06
19568;BMP280;9930;49.240;8.548;2022-08-02T02:02:56;100654.72;;;26.09
19568;BMP280;9930;49.240;8.548;2022-08-02T02:05:30;100650.44;;;26.05
19568;BMP280;9930;49.240;8.548;2022-08-02T02:08:01;100639.34;;;25.97
19568;BMP280;9930;49.240;8.548;2022-08-02T02:10:31;100648.91;;;25.98
19568;BMP280;9930;49.240;8.548;2022-08-02T02:13:08;100635.16;;;25.88
19568;BMP280;9930;49.240;8.548;2022-08-02T02:15:46;100643.88;;;25.89
19568;BMP280;9930;49.240;8.548;2022-08-02T02:18:19;100623.28;;;25.73
19568;BMP280;9930;49.240;8.548;2022-08-02T02:20:46;100631.84;;;25.80
19568;BMP280;9930;49.240;8.548;2022-08-02T02:23:12;100632.91;;;25.71
19568;BMP280;9930;49.240;8.548;2022-08-02T02:25:41;100634.66;;;25.71
19568;BMP280;9930;49.240;8.548;2022-08-02T02:28:18;100643.44;;;25.68
19568;BMP280;9930;49.240;8.548;2022-08-02T02:30:51;100637.44;;;25.62
19568;BMP280;9930;49.240;8.548;2022-08-02T02:33:21;100648.78;;;25.61
19568;BMP280;9930;49.240;8.548;2022-08-02T02:35:50;100635.00;;;25.53
19568;BMP280;9930;49.240;8.548;2022-08-02T02:38:19;100643.63;;;25.58
19568;BMP280;9930;49.240;8.548;2022-08-02T02:40:48;100639.31;;;25.55
19568;BMP280;9930;49.240;8.548;2022-08-02T02:43:16;100649.78;;;25.54
19568;BMP280;9930;49.240;8.548;2022-08-02T02:45:43;100633.38;;;25.47
19568;BMP280;9930;49.240;8.548;2022-08-02T02:48:13;100649.81;;;25.52
19568;BMP280;9930;49.240;8.548;2022-08-02T02:50:41;100643.78;;;25.50
19568;BMP280;9930;49.240;8.548;2022-08-02T02:53:16;100637.81;;;25.43
19568;BMP280;9930;49.240;8.548;2022-08-02T02:55:46;100642.91;;;25.49
19568;BMP280;9930;49.240;8.548;2022-08-02T02:58:16;100633.47;;;25.42
19568;BMP280;9930;49.240;8.548;2022-08-02T03:00:44;100647.44;;;25.41
19568;BMP280;9930;49.240;8.548;2022-08-02T03:03:30;100656.94;;;25.44
19568;BMP280;9930;49.240;8.548;2022-08-02T03:05:56;100665.72;;;25.41
19568;BMP280;9930;49.240;8.548;2022-08-02T03:08:22;100658.75;;;25.40
19568;BMP280;9930;49.240;8.548;2022-08-02T03:10:51;100657.13;;;25.35
19568;BMP280;9930;49.240;8.548;2022-08-02T03:13:20;100658.84;;;25.36
19568;BMP280;9930;49.240;8.548;2022-08-02T03:15:50;100655.50;;;25.29
19568;BMP280;9930;49.240;8.548;2022-08-02T03:18:35;100673.56;;;25.40
19568;BMP280;9930;49.240;8.548;2022-08-02T03:21:11;100664.97;;;25.35
19568;BMP280;9930;49.240;8.548;2022-08-02T03:23:42;100671.84;;;25.39
19568;BMP280;9930;49.240;8.548;2022-08-02T03:26:15;100671.88;;;25.37
19568;BMP280;9930;49.240;8.548;2022-08-02T03:28:41;100658.94;;;25.31
19568;BMP280;9930;49.240;8.548;2022-08-02T03:31:13;100666.75;;;25.33
19568;BMP280;9930;49.240;8.548;2022-08-02T03:33:43;100672.78;;;25.35
19568;BMP280;9930;49.240;8.548;2022-08-02T03:36:14;100671.94;;;25.34
19568;BMP280;9930;49.240;8.548;2022-08-02T03:38:42;100678.94;;;25.32
19568;BMP280;9930;49.240;8.548;2022-08-02T03:41:15;100659.06;;;25.25
19568;BMP280;9930;49.240;8.548;2022-08-02T03:43:44;100667.69;;;25.29
19568;BMP280;9930;49.240;8.548;2022-08-02T03:46:16;100654.78;;;25.21
19568;BMP280;9930;49.240;8.548;2022-08-02T03:48:43;100660.03;;;25.20
19568;BMP280;9930;49.240;8.548;2022-08-02T03:51:12;100658.28;;;25.20
19568;BMP280;9930;49.240;8.548;2022-08-02T03:53:41;100659.09;;;25.24
19568;BMP280;9930;49.240;8.548;2022-08-02T03:56:11;100664.38;;;25.19
19568;BMP280;9930;49.240;8.548;2022-08-02T03:58:38;100656.63;;;25.16
19568;BMP280;9930;49.240;8.548;2022-08-02T04:01:10;100665.31;;;25.16
19568;BMP280;9930;49.240;8.548;2022-08-02T04:03:37;100665.34;;;25.15
19568;BMP280;9930;49.240;8.548;2022-08-02T04:06:06;100669.75;;;25.11
19568;BMP280;9930;49.240;8.548;2022-08-02T04:08:34;100668.06;;;25.09
19568;BMP280;9930;49.240;8.548;2022-08-02T04:11:02;100682.75;;;25.14
19568;BMP280;9930;49.240;8.548;2022-08-02T04:13:49;100671.53;;;25.09
19568;BMP280;9930;49.240;8.548;2022-08-02T04:16:20;100672.34;;;25.13
19568;BMP280;9930;49.240;8.548;2022-08-02T04:19:03;100668.97;;;25.06
19568;BMP280;9930;49.240;8.548;2022-08-02T04:21:36;100681.03;;;25.13
19568;BMP280;9930;49.240;8.548;2022-08-02T04:24:11;100680.19;;;25.11
19568;BMP280;9930;49.240;8.548;2022-08-02T04:26:41;100684.47;;;25.15
19568;BMP280;9930;49.240;8.548;2022-08-02T04:29:11;100681.84;;;25.17
19568;BMP280;9930;49.240;8.548;2022-08-02T04:31:41;100674.16;;;25.08
19568;BMP280;9930;49.240;8.548;2022-08-02T04:34:13;100691.34;;;25.20
19568;BMP280;9930;49.240;8.548;2022-08-02T04:36:40;100692.19;;;25.22
19568;BMP280;9930;49.240;8.548;2022-08-02T04:39:06;100690.41;;;25.24
19568;BMP280;9930;49.240;8.548;2022-08-02T04:41:42;100680.91;;;25.20
19568;BMP280;9930;49.240;8.548;2022-08-02T04:44:11;100679.16;;;25.20
19568;BMP280;9930;49.240;8.548;2022-08-02T04:46:39;100682.53;;;25.27
19568;BMP280;9930;49.240;8.548;2022-08-02T04:49:06;100669.59;;;25.21
19568;BMP280;9930;49.240;8.548;2022-08-02T04:51:41;100681.66;;;25.26
19568;BMP280;9930;49.240;8.548;2022-08-02T04:54:12;100696.34;;;25.32
19568;BMP280;9930;49.240;8.548;2022-08-02T04:56:41;100689.50;;;25.26
19568;BMP280;9930;49.240;8.548;2022-08-02T04:59:10;100698.94;;;25.33
19568;BMP280;9930;49.240;8.548;2022-08-02T05:01:40;100700.66;;;25.34
19568;BMP280;9930;49.240;8.548;2022-08-02T05:04:10;100697.16;;;25.35
19568;BMP280;9930;49.240;8.548;2022-08-02T05:06:37;100696.28;;;25.36
19568;BMP280;9930;49.240;8.548;2022-08-02T05:09:10;100692.88;;;25.31
19568;BMP280;9930;49.240;8.548;2022-08-02T05:11:40;100698.88;;;25.36
19568;BMP280;9930;49.240;8.548;2022-08-02T05:14:12;100694.53;;;25.37
19568;BMP280;9930;49.240;8.548;2022-08-02T05:16:40;100697.97;;;25.39
19568;BMP280;9930;49.240;8.548;2022-08-02T05:19:10;100676.28;;;25.35
19568;BMP280;9930;49.240;8.548;2022-08-02T05:21:40;100692.63;;;25.45
19568;BMP280;9930;49.240;8.548;2022-08-02T05:24:06;100693.38;;;25.52
19568;BMP280;9930;49.240;8.548;2022-08-02T05:26:35;100699.31;;;25.60
19568;BMP280;9930;49.240;8.548;2022-08-02T05:29:04;100688.72;;;25.67
19568;BMP280;9930;49.240;8.548;2022-08-02T05:31:34;100698.13;;;25.76
19568;BMP280;9930;49.240;8.548;2022-08-02T05:34:00;100701.50;;;25.83
19568;BMP280;9930;49.240;8.548;2022-08-02T05:36:26;100695.34;;;25.85
19568;BMP280;9930;49.240;8.548;2022-08-02T05:38:51;100696.88;;;25.95
19568;BMP280;9930;49.240;8.548;2022-08-02T05:41:19;100704.34;;;26.10
19568;BMP280;9930;49.240;8.548;2022-08-02T05:43:45;100716.19;;;26.27
19568;BMP280;9930;49.240;8.548;2022-08-02T05:46:16;100700.25;;;26.39
19568;BMP280;9930;49.240;8.548;2022-08-02T05:48:42;100692.13;;;26.51
19568;BMP280;9930;49.240;8.548;2022-08-02T05:51:21;100707.16;;;26.78
19568;BMP280;9930;49.240;8.548;2022-08-02T05:54:01;100722.44;;;26.97
19568;BMP280;9930;49.240;8.548;2022-08-02T05:59:39;100716.28;;;27.66
19568;BMP280;9930;49.240;8.548;2022-08-02T06:03:13;100711.69;;;28.03
19568;BMP280;9930;49.240;8.548;2022-08-02T06:06:01;100698.53;;;28.34
19568;BMP280;9930;49.240;8.548;2022-08-02T06:08:57;100708.56;;;28.76
19568;BMP280;9930;49.240;8.548;2022-08-02T06:11:35;100711.00;;;29.09
19568;BMP280;9930;49.240;8.548;2022-08-02T06:14:05;100708.97;;;29.42
19568;BMP280;9930;49.240;8.548;2022-08-02T06:16:31;100705.22;;;29.74
19568;BMP280;9930;49.240;8.548;2022-08-02T06:18:59;100698.22;;;29.96
19568;BMP280;9930;49.240;8.548;2022-08-02T06:21:26;100703.56;;;30.18
19568;BMP280;9930;49.240;8.548;2022-08-02T06:23:56;100695.25;;;30.28
19568;BMP280;9930;49.240;8.548;2022-08-02T06:26:25;100711.47;;;30.40
19568;BMP280;9930;49.240;8.548;2022-08-02T06:28:56;100706.94;;;30.43
19568;BMP280;9930;49.240;8.548;2022-08-02T06:31:22;100708.94;;;30.37
19568;BMP280;9930;49.240;8.548;2022-08-02T06:33:48;100724.44;;;30.44
19568;BMP280;9930;49.240;8.548;2022-08-02T06:36:51;100728.66;;;30.48
19568;BMP280;9930;49.240;8.548;2022-08-02T06:41:58;100717.75;;;30.59
19568;BMP280;9930;49.240;8.548;2022-08-02T06:44:26;100713.19;;;30.63
19568;BMP280;9930;49.240;8.548;2022-08-02T06:46:51;100705.25;;;30.64
19568;BMP280;9930;49.240;8.548;2022-08-02T06:49:23;100697.88;;;30.72
19568;BMP280;9930;49.240;8.548;2022-08-02T06:51:52;100710.41;;;30.87
19568;BMP280;9930;49.240;8.548;2022-08-02T06:54:17;100717.00;;;30.98
19568;BMP280;9930;49.240;8.548;2022-08-02T06:56:47;100713.19;;;31.05
19568;BMP280;9930;49.240;8.548;2022-08-02T06:59:13;100723.69;;;31.06
19568;BMP280;9930;49.240;8.548;2022-08-02T07:01:39;100717.59;;;31.04
19568;BMP280;9930;49.240;8.548;2022-08-02T07:04:04;100715.78;;;31.06
19568;BMP280;9930;49.240;8.548;2022-08-02T07:06:30;100711.69;;;30.99
19568;BMP280;9930;49.240;8.548;2022-08-02T07:08:58;100716.28;;;30.94
19568;BMP280;9930;49.240;8.548;2022-08-02T07:11:24;100721.63;;;30.92
19568;BMP280;9930;49.240;8.548;2022-08-02T07:13:52;100737.63;;;30.88
19568;BMP280;9930;49.240;8.548;2022-08-02T07:16:21;100722.31;;;30.76
19568;BMP280;9930;49.240;8.548;2022-08-02T07:18:46;100728.19;;;30.82
19568;BMP280;9930;49.240;8.548;2022-08-02T07:21:14;100720.16;;;30.85
19568;BMP280;9930;49.240;8.548;2022-08-02T07:23:40;100732.22;;;30.91
19568;BMP280;9930;49.240;8.548;2022-08-02T07:26:06;100733.69;;;30.98
19568;BMP280;9930;49.240;8.548;2022-08-02T07:28:31;100727.09;;;31.08
19568;BMP280;9930;49.240;8.548;2022-08-02T07:30:59;100729.16;;;31.22
19568;BMP280;9930;49.240;8.548;2022-08-02T07:33:25;100721.03;;;31.27
19568;BMP280;9930;49.240;8.548;2022-08-02T07:35:52;100725.72;;;31.40
19568;BMP280;9930;49.240;8.548;2022-08-02T07:38:18;100729.78;;;31.47
19568;BMP280;9930;49.240;8.548;2022-08-02T07:40:47;100720.47;;;31.59
19568;BMP280;9930;49.240;8.548;2022-08-02T07:43:13;100726.16;;;31.70
19568;BMP280;9930;49.240;8.548;2022-08-02T07:45:39;100714.47;;;31.76
19568;BMP280;9930;49.240;8.548;2022-08-02T07:48:05;100725.13;;;31.93
19568;BMP280;9930;49.240;8.548;2022-08-02T07:50:33;100712.44;;;32.01
19568;BMP280;9930;49.240;8.548;2022-08-02T07:52:59;100711.94;;;32.12
19568;BMP280;9930;49.240;8.548;2022-08-02T07:55:25;100719.34;;;32.22
19568;BMP280;9930;49.240;8.548;2022-08-02T07:57:51;100710.31;;;32.28
19568;BMP280;9930;49.240;8.548;2022-08-02T08:00:17;100716.38;;;32.30
19568;BMP280;9930;49.240;8.548;2022-08-02T08:02:45;100721.34;;;32.36
19568;BMP280;9930;49.240;8.548;2022-08-02T08:05:11;100702.38;;;32.28
19568;BMP280;9930;49.240;8.548;2022-08-02T08:07:38;100714.91;;;32.42
19568;BMP280;9930;49.240;8.548;2022-08-02T08:10:06;100714.69;;;32.46
19568;BMP280;9930;49.240;8.548;2022-08-02T08:12:32;100702.72;;;32.39
19568;BMP280;9930;49.240;8.548;2022-08-02T08:14:58;100697.38;;;32.41
19568;BMP280;9930;49.240;8.548;2022-08-02T08:17:26;100700.50;;;32.49
19568;BMP280;9930;49.240;8.548;2022-08-02T08:19:53;100701.97;;;32.55
19568;BMP280;9930;49.240;8.548;2022-08-02T08:22:20;100693.03;;;32.57
19568;BMP280;9930;49.240;8.548;2022-08-02T08:24:46;100690.19;;;32.62
19568;BMP280;9930;49.240;8.548;2022-08-02T08:27:12;100700.53;;;32.66
19568;BMP280;9930;49.240;8.548;2022-08-02T08:29:44;100696.47;;;32.59
19568;BMP280;9930;49.240;8.548;2022-08-02T08:32:11;100699.47;;;32.51
19568;BMP280;9930;49.240;8.548;2022-08-02T08:34:38;100701.34;;;32.49
19568;BMP280;9930;49.240;8.548;2022-08-02T08:37:04;100692.78;;;32.44
19568;BMP280;9930;49.240;8.548;2022-08-02T08:39:30;100692.38;;;32.35
19568;BMP280;9930;49.240;8.548;2022-08-02T08:41:57;100701.44;;;32.29
19568;BMP280;9930;49.240;8.548;2022-08-02T08:44:23;100690.81;;;32.12
19568;BMP280;9930;49.240;8.548;2022-08-02T08:46:55;100692.97;;;32.04
19568;BMP280;9930;49.240;8.548;2022-08-02T08:49:30;100692.38;;;31.97
19568;BMP280;9930;49.240;8.548;2022-08-02T08:52:05;100693.59;;;31.90
19568;BMP280;9930;49.240;8.548;2022-08-02T08:54:35;100700.81;;;31.86
19568;BMP280;9930;49.240;8.548;2022-08-02T08:57:06;100694.75;;;31.84
19568;BMP280;9930;49.240;8.548;2022-08-02T08:59:33;100698.88;;;31.90
19568;BMP280;9930;49.240;8.548;2022-08-02T09:02:00;100676.69;;;31.75
19568;BMP280;9930;49.240;8.548;2022-08-02T09:04:28;100699.38;;;31.79
19568;BMP280;9930;49.240;8.548;2022-08-02T09:06:55;100686.38;;;31.75
19568;BMP280;9930;49.240;8.548;2022-08-02T09:09:23;100686.47;;;31.73
19568;BMP280;9930;49.240;8.548;2022-08-02T09:11:48;100681.31;;;31.70
19568;BMP280;9930;49.240;8.548;2022-08-02T09:14:28;100697.66;;;31.78
19568;BMP280;9930;49.240;8.548;2022-08-02T09:17:07;100691.66;;;31.75
19568;BMP280;9930;49.240;8.548;2022-08-02T09:19:35;100687.38;;;31.72
19568;BMP280;9930;49.240;8.548;2022-08-02T09:22:07;100684.75;;;31.72
19568;BMP280;9930;49.240;8.548;2022-08-02T09:24:50;100686.47;;;31.73
19568;BMP280;9930;49.240;8.548;2022-08-02T09:27:21;100695.81;;;31.80
19568;BMP280;9930;49.240;8.548;2022-08-02T09:29:50;100686.09;;;31.81
19568;BMP280;9930;49.240;8.548;2022-08-02T09:32:16;100691.81;;;31.91
19568;BMP280;9930;49.240;8.548;2022-08-02T09:34:51;100683.41;;;32.01
19568;BMP280;9930;49.240;8.548;2022-08-02T09:37:29;100679.31;;;32.13
19568;BMP280;9930;49.240;8.548;2022-08-02T09:39:58;100675.34;;;32.23
19568;BMP280;9930;49.240;8.548;2022-08-02T09:42:28;100665.19;;;32.33
19568;BMP280;9930;49.240;8.548;2022-08-02T09:45:00;100673.94;;;32.52
19568;BMP280;9930;49.240;8.548;2022-08-02T09:47:30;100663.75;;;32.62
19568;BMP280;9930;49.240;8.548;2022-08-02T09:49:59;100671.84;;;32.76
19568;BMP280;9930;49.240;8.548;2022-08-02T09:52:29;100671.34;;;32.87
19568;BMP280;9930;49.240;8.548;2022-08-02T09:55:04;100649.97;;;32.91
19568;BMP280;9930;49.240;8.548;2022-08-02T09:57:30;100642.50;;;32.99
19568;BMP280;9930;49.240;8.548;2022-08-02T09:59:58;100657.56;;;33.14
19568;BMP280;9930;49.240;8.548;2022-08-02T10:02:25;100641.69;;;33.14
19568;BMP280;9930;49.240;8.548;2022-08-02T10:04:51;100653.91;;;33.17
19568;BMP280;9930;49.240;8.548;2022-08-02T10:07:20;100648.53;;;33.19
19568;BMP280;9930;49.240;8.548;2022-08-02T10:09:46;100659.63;;;33.25
19568;BMP280;9930;49.240;8.548;2022-08-02T10:12:13;100659.34;;;33.31
19568;BMP280;9930;49.240;8.548;2022-08-02T10:14:41;100655.69;;;33.34
19568;BMP280;9930;49.240;8.548;2022-08-02T10:17:11;100651.00;;;33.39
19568;BMP280;9930;49.240;8.548;2022-08-02T10:19:41;100643.84;;;33.41
19568;BMP280;9930;49.240;8.548;2022-08-02T10:22:14;100646.06;;;33.48
19568;BMP280;9930;49.240;8.548;2022-08-02T10:24:41;100645.66;;;33.56
19568;BMP280;9930;49.240;8.548;2022-08-02T10:27:19;100629.19;;;33.51
19568;BMP280;9930;49.240;8.548;2022-08-02T10:29:49;100634.31;;;33.54
19568;BMP280;9930;49.240;8.548;2022-08-02T10:32:25;100632.53;;;33.55
19568;BMP280;9930;49.240;8.548;2022-08-02T10:35:03;100626.63;;;33.50
19568;BMP280;9930;49.240;8.548;2022-08-02T10:37:35;100636.09;;;33.54
19568;BMP280;9930;49.240;8.548;2022-08-02T10:40:05;100627.81;;;33.44
19568;BMP280;9930;49.240;8.548;2022-08-02T10:42:49;100627.81;;;33.44
19568;BMP280;9930;49.240;8.548;2022-08-02T10:45:21;100631.16;;;33.47
19568;BMP280;9930;49.240;8.548;2022-08-02T10:47:56;100622.03;;;33.53
19568;BMP280;9930;49.240;8.548;2022-08-02T10:55:52;100596.59;;;33.66
19568;BMP280;9930;49.240;8.548;2022-08-02T10:58:23;100607.53;;;33.76
19568;BMP280;9930;49.240;8.548;2022-08-02T11:00:51;100602.59;;;33.86
19568;BMP280;9930;49.240;8.548;2022-08-02T11:06:11;100603.63;;;33.99
19568;BMP280;9930;49.240;8.548;2022-08-02T11:08:44;100604.31;;;34.02
19568;BMP280;9930;49.240;8.548;2022-08-02T11:14:04;100594.28;;;34.23
19568;BMP280;9930;49.240;8.548;2022-08-02T11:19:24;100590.19;;;34.33
19568;BMP280;9930;49.240;8.548;2022-08-02T11:22:09;100594.00;;;34.43
19568;BMP280;9930;49.240;8.548;2022-08-02T11:24:42;100591.00;;;34.50
19568;BMP280;9930;49.240;8.548;2022-08-02T11:27:20;100579.06;;;34.42
19568;BMP280;9930;49.240;8.548;2022-08-02T11:29:47;100585.09;;;34.45
19568;BMP280;9930;49.240;8.548;2022-08-02T11:32:23;100585.19;;;34.43
19568;BMP280;9930;49.240;8.548;2022-08-02T11:34:55;100583.59;;;34.40
19568;BMP280;9930;49.240;8.548;2022-08-02T11:37:43;100571.66;;;34.33
19568;BMP280;9930;49.240;8.548;2022-08-02T11:40:17;100578.47;;;34.37
19568;BMP280;9930;49.240;8.548;2022-08-02T11:42:47;100575.81;;;34.37
19568;BMP280;9930;49.240;8.548;2022-08-02T11:45:23;100570.06;;;34.45
19568;BMP280;9930;49.240;8.548;2022-08-02T11:47:52;100579.09;;;34.57
19568;BMP280;9930;49.240;8.548;2022-08-02T11:50:21;100572.56;;;34.62
19568;BMP280;9930;49.240;8.548;2022-08-02T11:52:50;100574.00;;;34.68
19568;BMP280;9930;49.240;8.548;2022-08-02T11:55:30;100581.66;;;34.72
19568;BMP280;9930;49.240;8.548;2022-08-02T11:58:04;100582.16;;;34.79
19568;BMP280;9930;49.240;8.548;2022-08-02T12:00:32;100579.25;;;34.84
19568;BMP280;9930;49.240;8.548;2022-08-02T12:02:58;100569.97;;;34.91
19568;BMP280;9930;49.240;8.548;2022-08-02T12:05:24;100570.56;;;34.96
19568;BMP280;9930;49.240;8.548;2022-08-02T12:07:51;100571.59;;;35.08
19568;BMP280;9930;49.240;8.548;2022-08-02T12:10:21;100564.41;;;35.10
19568;BMP280;9930;49.240;8.548;2022-08-02T12:12:57;100557.38;;;35.09
19568;BMP280;9930;49.240;8.548;2022-08-02T12:15:35;100571.03;;;35.17
19568;BMP280;9930;49.240;8.548;2022-08-02T12:18:07;100559.94;;;35.10
19568;BMP280;9930;49.240;8.548;2022-08-02T12:20:52;100569.78;;;35.08
19568;BMP280;9930;49.240;8.548;2022-08-02T12:23:18;100564.59;;;35.06
19568;BMP280;9930;49.240;8.548;2022-08-02T12:25:46;100564.41;;;35.10
19568;BMP280;9930;49.240;8.548;2022-08-02T12:28:23;100570.06;;;35.18
19568;BMP280;9930;49.240;8.548;2022-08-02T12:30:59;100561.94;;;35.21
19568;BMP280;9930;49.240;8.548;2022-08-02T12:33:29;100561.63;;;35.25
19568;BMP280;9930;49.240;8.548;2022-08-02T12:36:21;100570.84;;;35.34
19568;BMP280;9930;49.240;8.548;2022-08-02T12:38:59;100560.91;;;35.37
19568;BMP280;9930;49.240;8.548;2022-08-02T12:41:27;100562.31;;;35.43
19568;BMP280;9930;49.240;8.548;2022-08-02T12:43:56;100554.34;;;35.43
19568;BMP280;9930;49.240;8.548;2022-08-02T12:46:23;100552.66;;;35.42
19568;BMP280;9930;49.240;8.548;2022-08-02T12:48:50;100554.53;;;35.40
19568;BMP280;9930;49.240;8.548;2022-08-02T12:51:24;100548.09;;;35.44
19568;BMP280;9930;49.240;8.548;2022-08-02T12:53:52;100537.78;;;35.40
19568;BMP280;9930;49.240;8.548;2022-08-02T12:56:36;100546.09;;;35.48
19568;BMP280;9930;49.240;8.548;2022-08-02T12:59:05;100535.88;;;35.42
19568;BMP280;9930;49.240;8.548;2022-08-02T13:01:35;100532.56;;;35.38
19568;BMP280;9930;49.240;8.548;2022-08-02T13:04:01;100536.53;;;35.45
19568;BMP280;9930;49.240;8.548;2022-08-02T13:06:27;100537.19;;;35.49
19568;BMP280;9930;49.240;8.548;2022-08-02T13:08:55;100539.00;;;35.48
19568;BMP280;9930;49.240;8.548;2022-08-02T13:11:24;100542.78;;;35.44
19568;BMP280;9930;49.240;8.548;2022-08-02T13:13:52;100539.38;;;35.42
19568;BMP280;9930;49.240;8.548;2022-08-02T13:16:18;100536.84;;;35.41
19568;BMP280;9930;49.240;8.548;2022-08-02T13:18:44;100528.22;;;35.37
19568;BMP280;9930;49.240;8.548;2022-08-02T13:21:14;100527.72;;;35.45
19568;BMP280;9930;49.240;8.548;2022-08-02T13:23:39;100522.72;;;35.40
19568;BMP280;9930;49.240;8.548;2022-08-02T13:26:05;100520.81;;;35.42
19568;BMP280;9930;49.240;8.548;2022-08-02T13:28:31;100520.41;;;35.48
19568;BMP280;9930;49.240;8.548;2022-08-02T13:30:57;100521.16;;;35.50
19568;BMP280;9930;49.240;8.548;2022-08-02T13:33:23;100516.06;;;35.47
19568;BMP280;9930;49.240;8.548;2022-08-02T13:35:49;100511.50;;;35.49
19568;BMP280;9930;49.240;8.548;2022-08-02T13:38:17;100516.41;;;35.55
19568;BMP280;9930;49.240;8.548;2022-08-02T13:40:43;100501.25;;;35.57
19568;BMP280;9930;49.240;8.548;2022-08-02T13:43:27;100494.34;;;35.55
19568;BMP280;9930;49.240;8.548;2022-08-02T13:45:54;100497.00;;;35.55
19568;BMP280;9930;49.240;8.548;2022-08-02T13:48:25;100495.00;;;35.58
19568;BMP280;9930;49.240;8.548;2022-08-02T13:50:53;100486.38;;;35.55
19568;BMP280;9930;49.240;8.548;2022-08-02T13:53:19;100489.34;;;35.50
19568;BMP280;9930;49.240;8.548;2022-08-02T13:55:47;100497.75;;;35.57
19568;BMP280;9930;49.240;8.548;2022-08-02T13:58:15;100488.47;;;35.50
19568;BMP280;9930;49.240;8.548;2022-08-02T14:00:43;100492.00;;;35.50
19568;BMP280;9930;49.240;8.548;2022-08-02T14:03:09;100474.00;;;35.41
19568;BMP280;9930;49.240;8.548;2022-08-02T14:05:40;100491.53;;;35.44
19568;BMP280;9930;49.240;8.548;2022-08-02T14:08:06;100484.28;;;35.33
19568;BMP280;9930;49.240;8.548;2022-08-02T14:10:33;100481.50;;;35.34
19568;BMP280;9930;49.240;8.548;2022-08-02T14:12:59;100485.38;;;35.29
19568;BMP280;9930;49.240;8.548;2022-08-02T14:15:27;100472.41;;;35.24
19568;BMP280;9930;49.240;8.548;2022-08-02T14:17:55;100475.28;;;35.21
19568;BMP280;9930;49.240;8.548;2022-08-02T14:20:21;100484.81;;;35.24
19568;BMP280;9930;49.240;8.548;2022-08-02T14:22:51;100481.72;;;35.17
19568;BMP280;9930;49.240;8.548;2022-08-02T14:25:17;100475.66;;;35.15
19568;BMP280;9930;49.240;8.548;2022-08-02T14:27:42;100476.41;;;35.17
19568;BMP280;9930;49.240;8.548;2022-08-02T14:30:09;100482.66;;;35.16
19568;BMP280;9930;49.240;8.548;2022-08-02T14:32:35;100473.88;;;35.16
19568;BMP280;9930;49.240;8.548;2022-08-02T14:35:05;100465.25;;;35.12
19568;BMP280;9930;49.240;8.548;2022-08-02T14:37:31;100470.56;;;35.12
19568;BMP280;9930;49.240;8.548;2022-08-02T14:39:57;100464.69;;;35.07
19568;BMP280;9930;49.240;8.548;2022-08-02T14:42:23;100465.84;;;35.03
19568;BMP280;9930;49.240;8.548;2022-08-02T14:44:51;100464.31;;;34.99
19568;BMP280;9930;49.240;8.548;2022-08-02T14:47:17;100452.50;;;34.90
19568;BMP280;9930;49.240;8.548;2022-08-02T14:49:43;100464.44;;;34.97
19568;BMP280;9930;49.240;8.548;2022-08-02T14:52:11;100465.28;;;34.98
19568;BMP280;9930;49.240;8.548;2022-08-02T14:54:39;100447.66;;;34.97